Time;durP1;ratioP1;P1;durP2;ratioP2;P2;SDS_P1;SDS_P2;PMS_P1;PMS_P2;Temp;Humidity;BMP_temperature;BMP_pressure;BME280_temperature;BME280_humidity;BME280_pressure;Samples;Min_cycle;Max_cycle;Signal;HPM_P1;HPM_P2
2023/07/23 00:02:05;;;;;;;20.53;9.50;;;;;;;;;;6232516;28;20033;-84
2023/07/23 00:05:06;;;;;;;14.17;9.33;;;;;;;;;;6234361;28;20035;-84
2023/07/23 00:08:06;;;;;;;15.70;8.87;;;;;;;;;;6209417;28;20013;-84
2023/07/23 00:11:06;;;;;;;15.27;9.52;;;;;;;;;;6225919;28;20117;-82
2023/07/23 00:14:06;;;;;;;15.90;9.07;;;;;;;;;;6218830;28;20012;-82
2023/07/23 00:17:07;;;;;;;13.77;9.63;;;;;;;;;;6220140;28;20033;-82
2023/07/23 00:20:10;;;;;;;13.70;9.90;;;;;;;;;;6235776;28;20026;-82
2023/07/23 00:23:10;;;;;;;14.60;9.77;;;;;;;;;;6210935;28;20028;-83
2023/07/23 00:26:12;;;;;;;18.17;11.20;;;;;;;;;;6230885;28;20054;-83
2023/07/23 00:29:12;;;;;;;17.27;11.73;;;;;;;;;;6209365;28;20020;-82
2023/07/23 00:32:12;;;;;;;19.87;12.77;;;;;;;;;;6225865;28;20472;-82
2023/07/23 00:35:14;;;;;;;22.08;10.68;;;;;;;;;;6218696;28;20130;-82
2023/07/23 00:38:14;;;;;;;19.40;12.35;;;;;;;;;;6210824;28;20079;-82
2023/07/23 00:41:15;;;;;;;23.73;12.30;;;;;;;;;;6215538;28;20022;-83
2023/07/23 00:44:16;;;;;;;20.25;11.65;;;;;;;;;;6207268;28;20033;-82
2023/07/23 00:47:16;;;;;;;20.00;12.13;;;;;;;;;;6225501;28;20131;-82
2023/07/23 00:50:16;;;;;;;23.67;12.40;;;;;;;;;;6215242;28;20028;-82
2023/07/23 00:53:17;;;;;;;23.33;13.15;;;;;;;;;;6215207;28;20033;-82
2023/07/23 00:56:17;;;;;;;21.17;13.25;;;;;;;;;;6212284;28;20034;-82
2023/07/23 00:59:18;;;;;;;16.07;11.27;;;;;;;;;;6217825;28;20034;-82
2023/07/23 01:02:18;;;;;;;19.80;11.70;;;;;;;;;;6235915;28;20017;-83
2023/07/23 01:05:18;;;;;;;19.30;11.47;;;;;;;;;;6228900;28;20582;-82
2023/07/23 01:08:19;;;;;;;18.92;11.77;;;;;;;;;;6217909;28;20076;-81
2023/07/23 01:11:21;;;;;;;25.08;13.27;;;;;;;;;;6232081;28;20142;-82
2023/07/23 01:14:22;;;;;;;25.10;15.57;;;;;;;;;;6224260;28;20065;-82
2023/07/23 01:17:22;;;;;;;24.00;13.87;;;;;;;;;;6228003;28;20021;-82
2023/07/23 01:20:23;;;;;;;23.02;14.25;;;;;;;;;;6235149;28;20026;-83
2023/07/23 01:23:23;;;;;;;24.27;14.10;;;;;;;;;;6223953;28;20025;-82
2023/07/23 01:26:23;;;;;;;23.70;14.52;;;;;;;;;;6212620;28;20010;-83
2023/07/23 01:29:23;;;;;;;21.27;13.83;;;;;;;;;;6224160;28;20010;-83
2023/07/23 01:32:24;;;;;;;29.48;14.65;;;;;;;;;;6234187;28;20432;-83
2023/07/23 01:35:24;;;;;;;21.10;14.30;;;;;;;;;;6216270;28;20075;-83
2023/07/23 01:38:24;;;;;;;19.95;13.00;;;;;;;;;;6215214;28;20029;-82
2023/07/23 01:41:25;;;;;;;24.13;12.83;;;;;;;;;;6230071;28;20033;-82
2023/07/23 01:44:25;;;;;;;21.77;14.73;;;;;;;;;;6226943;28;20112;-82
2023/07/23 01:47:25;;;;;;;23.63;13.30;;;;;;;;;;6236286;28;20373;-83
2023/07/23 01:50:26;;;;;;;17.60;12.23;;;;;;;;;;6230331;28;20053;-83
2023/07/23 01:53:26;;;;;;;22.63;11.70;;;;;;;;;;6229209;28;20479;-83
2023/07/23 01:56:26;;;;;;;20.38;12.82;;;;;;;;;;6215651;28;20758;-83
2023/07/23 01:59:27;;;;;;;25.60;12.88;;;;;;;;;;6214923;28;20018;-83
2023/07/23 02:02:27;;;;;;;23.13;13.05;;;;;;;;;;6245433;28;20020;-83
2023/07/23 02:05:29;;;;;;;20.97;13.23;;;;;;;;;;6234815;28;20029;-83
2023/07/23 02:08:30;;;;;;;21.67;12.70;;;;;;;;;;6226085;28;20029;-83
2023/07/23 02:11:30;;;;;;;23.30;14.95;;;;;;;;;;6230308;28;20558;-83
2023/07/23 02:14:31;;;;;;;23.23;14.20;;;;;;;;;;6244622;28;20021;-83
2023/07/23 02:17:32;;;;;;;29.47;15.00;;;;;;;;;;6238828;28;20096;-83
2023/07/23 02:20:32;;;;;;;29.98;14.43;;;;;;;;;;6220743;28;20092;-85
2023/07/23 02:23:32;;;;;;;26.13;13.53;;;;;;;;;;6238716;28;20022;-85
2023/07/23 02:26:32;;;;;;;26.13;14.35;;;;;;;;;;6233123;28;20300;-85
2023/07/23 02:29:33;;;;;;;32.43;16.57;;;;;;;;;;6225253;28;20476;-85
2023/07/23 02:32:33;;;;;;;29.37;15.60;;;;;;;;;;6230991;28;20479;-82
2023/07/23 02:35:37;;;;;;;25.17;14.87;;;;;;;;;;6226342;28;20025;-83
2023/07/23 02:38:37;;;;;;;24.17;13.70;;;;;;;;;;6216480;28;20028;-83
2023/07/23 02:41:37;;;;;;;22.70;13.97;;;;;;;;;;6214589;28;20025;-83
2023/07/23 02:44:39;;;;;;;27.27;14.68;;;;;;;;;;6237732;28;20797;-83
2023/07/23 02:47:39;;;;;;;20.40;14.35;;;;;;;;;;6234258;28;20030;-83
2023/07/23 02:50:40;;;;;;;23.07;13.73;;;;;;;;;;6216151;28;20021;-84
2023/07/23 02:53:40;;;;;;;25.23;14.63;;;;;;;;;;6238613;28;20029;-83
2023/07/23 02:56:40;;;;;;;22.97;13.67;;;;;;;;;;6227539;28;20043;-83
2023/07/23 02:59:40;;;;;;;20.80;13.45;;;;;;;;;;6223454;28;20097;-83
2023/07/23 03:02:41;;;;;;;25.00;14.83;;;;;;;;;;6234314;28;20099;-83
2023/07/23 03:05:42;;;;;;;25.42;14.73;;;;;;;;;;6239513;28;20152;-83
2023/07/23 03:08:42;;;;;;;26.25;14.88;;;;;;;;;;6241244;28;20468;-83
2023/07/23 03:11:43;;;;;;;31.23;14.60;;;;;;;;;;6248345;28;20059;-83
2023/07/23 03:14:43;;;;;;;25.90;14.35;;;;;;;;;;6242038;28;20502;-83
2023/07/23 03:17:43;;;;;;;23.97;14.57;;;;;;;;;;6234859;28;20049;-82
2023/07/23 03:20:44;;;;;;;24.80;14.70;;;;;;;;;;6224454;28;20149;-82
2023/07/23 03:23:44;;;;;;;24.45;13.90;;;;;;;;;;6219981;28;20292;-83
2023/07/23 03:26:44;;;;;;;22.60;14.20;;;;;;;;;;6227914;28;20028;-83
2023/07/23 03:29:44;;;;;;;22.23;13.80;;;;;;;;;;6223860;28;20588;-83
2023/07/23 03:32:44;;;;;;;24.17;13.48;;;;;;;;;;6218254;28;20020;-86
2023/07/23 03:35:46;;;;;;;21.23;13.57;;;;;;;;;;6232755;28;20026;-86
2023/07/23 03:38:46;;;;;;;21.70;13.15;;;;;;;;;;6214408;28;20520;-86
2023/07/23 03:41:47;;;;;;;30.77;15.70;;;;;;;;;;6226671;28;20033;-86
2023/07/23 03:44:47;;;;;;;22.65;13.93;;;;;;;;;;6222141;28;20540;-86
2023/07/23 03:47:47;;;;;;;24.17;12.82;;;;;;;;;;6219466;28;20082;-86
2023/07/23 03:50:47;;;;;;;22.03;13.40;;;;;;;;;;6221889;28;20017;-86
2023/07/23 03:53:47;;;;;;;22.60;14.30;;;;;;;;;;6238351;28;20378;-86
2023/07/23 03:56:48;;;;;;;26.27;13.07;;;;;;;;;;6209208;28;20030;-86
2023/07/23 03:59:48;;;;;;;20.97;13.60;;;;;;;;;;6227780;28;20021;-86
2023/07/23 04:02:48;;;;;;;22.07;13.10;;;;;;;;;;6238764;28;20561;-85
2023/07/23 04:05:48;;;;;;;26.70;14.52;;;;;;;;;;6266297;28;20033;-86
2023/07/23 04:08:48;;;;;;;24.17;14.47;;;;;;;;;;6249857;28;20050;-85
2023/07/23 04:11:49;;;;;;;31.73;15.30;;;;;;;;;;6259227;28;20009;-85
2023/07/23 04:14:49;;;;;;;23.33;14.73;;;;;;;;;;6240943;28;20009;-85
2023/07/23 04:17:49;;;;;;;28.17;15.63;;;;;;;;;;6235720;28;20497;-86
2023/07/23 04:20:49;;;;;;;22.73;14.57;;;;;;;;;;6231045;28;20377;-86
2023/07/23 04:23:50;;;;;;;19.80;14.00;;;;;;;;;;6238797;28;20018;-85
2023/07/23 04:26:50;;;;;;;20.73;12.93;;;;;;;;;;6228961;28;20048;-85
2023/07/23 04:29:51;;;;;;;22.67;12.15;;;;;;;;;;6227412;28;20460;-85
2023/07/23 04:32:52;;;;;;;21.93;13.90;;;;;;;;;;6243080;28;20091;-86
2023/07/23 04:35:52;;;;;;;23.10;13.40;;;;;;;;;;6228535;28;20017;-85
2023/07/23 04:38:52;;;;;;;20.30;12.33;;;;;;;;;;6243229;28;20105;-85
2023/07/23 04:41:52;;;;;;;20.17;13.10;;;;;;;;;;6239354;28;20763;-82
2023/07/23 04:44:53;;;;;;;19.07;10.23;;;;;;;;;;6216939;28;20026;-82
2023/07/23 04:47:54;;;;;;;17.70;10.87;;;;;;;;;;6235716;28;20025;-81
2023/07/23 04:50:55;;;;;;;18.67;11.40;;;;;;;;;;6231822;28;20088;-85
2023/07/23 04:53:55;;;;;;;15.68;8.82;;;;;;;;;;6238210;28;20025;-84
2023/07/23 04:56:55;;;;;;;15.65;9.38;;;;;;;;;;6250452;28;20359;-86
2023/07/23 04:59:56;;;;;;;13.97;9.03;;;;;;;;;;6247460;28;20030;-87
2023/07/23 05:02:56;;;;;;;14.77;10.40;;;;;;;;;;6249922;28;20041;-86
2023/07/23 05:06:00;;;;;;;14.63;9.00;;;;;;;;;;6245661;28;20576;-86
2023/07/23 05:09:01;;;;;;;12.32;9.07;;;;;;;;;;6241532;28;20041;-86
2023/07/23 05:12:01;;;;;;;18.10;9.50;;;;;;;;;;6227474;28;20027;-86
2023/07/23 05:15:12;;;;;;;14.60;8.20;;;;;;;;;;6237799;28;20034;-87
2023/07/23 05:18:12;;;;;;;16.27;8.00;;;;;;;;;;6243775;28;20029;-86
2023/07/23 05:21:12;;;;;;;20.83;9.13;;;;;;;;;;6246399;28;20037;-86
2023/07/23 05:24:12;;;;;;;16.27;10.23;;;;;;;;;;6233426;28;20026;-86
2023/07/23 05:27:13;;;;;;;14.90;8.00;;;;;;;;;;6239590;28;20010;-86
2023/07/23 05:30:14;;;;;;;15.10;10.20;;;;;;;;;;6219941;28;20400;-85
2023/07/23 05:33:14;;;;;;;14.85;9.18;;;;;;;;;;6239164;28;20053;-86
2023/07/23 05:36:14;;;;;;;11.53;7.83;;;;;;;;;;6235609;28;20027;-85
2023/07/23 05:39:16;;;;;;;12.90;9.07;;;;;;;;;;6240528;28;20104;-86
2023/07/23 05:42:16;;;;;;;13.43;8.55;;;;;;;;;;6222180;28;20022;-86
2023/07/23 05:45:16;;;;;;;15.47;8.77;;;;;;;;;;6249523;28;20052;-86
2023/07/23 05:48:18;;;;;;;15.00;9.00;;;;;;;;;;6242091;28;20034;-86
2023/07/23 05:51:18;;;;;;;15.27;9.93;;;;;;;;;;6218661;28;20064;-82
2023/07/23 05:54:18;;;;;;;15.63;9.33;;;;;;;;;;6232873;28;20365;-82
2023/07/23 05:57:19;;;;;;;11.57;8.30;;;;;;;;;;6241227;28;20029;-83
2023/07/23 06:00:19;;;;;;;12.80;9.23;;;;;;;;;;6240427;28;20118;-82
2023/07/23 06:03:19;;;;;;;14.87;8.73;;;;;;;;;;6229393;28;20040;-87
2023/07/23 06:06:19;;;;;;;13.83;9.03;;;;;;;;;;6222219;28;20025;-86
2023/07/23 06:09:20;;;;;;;14.67;8.80;;;;;;;;;;6221666;28;20575;-86
2023/07/23 06:12:20;;;;;;;12.47;8.23;;;;;;;;;;6215746;28;20117;-86
2023/07/23 06:15:20;;;;;;;14.10;9.00;;;;;;;;;;6216900;28;20029;-85
2023/07/23 06:18:22;;;;;;;12.00;7.53;;;;;;;;;;6225285;28;20022;-86
2023/07/23 06:21:22;;;;;;;11.23;7.72;;;;;;;;;;6236661;28;20025;-87
2023/07/23 06:24:22;;;;;;;10.00;7.57;;;;;;;;;;6222937;28;20617;-86
2023/07/23 06:27:22;;;;;;;11.97;8.40;;;;;;;;;;6231545;28;20057;-86
2023/07/23 06:30:23;;;;;;;11.77;7.47;;;;;;;;;;6230442;28;20035;-86
2023/07/23 06:33:24;;;;;;;10.67;7.87;;;;;;;;;;6221322;28;20014;-86
2023/07/23 06:36:24;;;;;;;12.40;7.68;;;;;;;;;;6244162;28;20116;-87
2023/07/23 06:39:25;;;;;;;12.00;6.83;;;;;;;;;;6240065;28;20097;-86
2023/07/23 06:42:25;;;;;;;12.33;7.20;;;;;;;;;;6243854;28;20018;-87
2023/07/23 06:45:26;;;;;;;10.27;6.37;;;;;;;;;;6212190;28;20029;-87
2023/07/23 06:48:28;;;;;;;9.67;6.27;;;;;;;;;;6241078;28;20797;-84
2023/07/23 06:51:28;;;;;;;10.63;6.35;;;;;;;;;;6237557;28;20024;-84
2023/07/23 06:54:28;;;;;;;11.60;7.10;;;;;;;;;;6244160;28;20014;-84
2023/07/23 06:57:28;;;;;;;12.37;7.33;;;;;;;;;;6213544;28;20449;-83
2023/07/23 07:00:28;;;;;;;11.05;7.43;;;;;;;;;;6226418;28;20120;-84
2023/07/23 07:03:29;;;;;;;10.93;6.57;;;;;;;;;;6223222;28;20029;-84
2023/07/23 07:06:30;;;;;;;11.80;6.10;;;;;;;;;;6229101;28;20017;-84
2023/07/23 07:09:31;;;;;;;11.50;6.70;;;;;;;;;;6242056;28;20438;-84
2023/07/23 07:12:32;;;;;;;10.43;5.90;;;;;;;;;;6244137;28;20029;-84
2023/07/23 07:15:32;;;;;;;12.17;5.80;;;;;;;;;;6229801;28;20029;-84
2023/07/23 07:18:32;;;;;;;8.03;5.40;;;;;;;;;;6217577;28;20050;-84
2023/07/23 07:21:32;;;;;;;8.90;5.67;;;;;;;;;;6235237;28;20021;-84
2023/07/23 07:24:33;;;;;;;10.13;5.83;;;;;;;;;;6207999;28;20041;-84
2023/07/23 07:27:33;;;;;;;8.87;6.17;;;;;;;;;;6212480;28;20476;-86
2023/07/23 07:30:35;;;;;;;8.20;5.17;;;;;;;;;;6223055;28;20045;-86
2023/07/23 07:33:37;;;;;;;7.50;5.07;;;;;;;;;;6237568;28;20055;-86
2023/07/23 07:36:38;;;;;;;9.52;5.50;;;;;;;;;;6236613;28;20030;-85
2023/07/23 07:39:40;;;;;;;6.68;3.97;;;;;;;;;;6218777;28;20079;-88
2023/07/23 07:42:41;;;;;;;7.57;4.13;;;;;;;;;;6209792;28;20840;-87
2023/07/23 07:45:41;;;;;;;8.77;4.20;;;;;;;;;;6234082;28;20026;-88
2023/07/23 07:48:42;;;;;;;7.33;5.07;;;;;;;;;;6245246;28;20100;-88
2023/07/23 07:51:44;;;;;;;12.30;4.93;;;;;;;;;;6243022;28;20071;-87
2023/07/23 07:54:44;;;;;;;7.13;3.92;;;;;;;;;;6215579;28;20483;-86
2023/07/23 07:57:45;;;;;;;9.20;4.60;;;;;;;;;;6228608;28;20024;-86
2023/07/23 08:00:45;;;;;;;7.17;4.10;;;;;;;;;;6234542;28;20022;-87
2023/07/23 08:03:45;;;;;;;7.00;3.97;;;;;;;;;;6199311;28;20037;-87
2023/07/23 08:06:47;;;;;;;8.70;4.73;;;;;;;;;;6236701;28;20045;-87
2023/07/23 08:09:48;;;;;;;6.20;3.70;;;;;;;;;;6237186;28;20042;-89
2023/07/23 08:12:49;;;;;;;8.75;4.47;;;;;;;;;;6235296;28;20521;-86
2023/07/23 08:15:49;;;;;;;8.10;4.07;;;;;;;;;;6235793;28;20017;-86
2023/07/23 08:18:49;;;;;;;6.80;3.93;;;;;;;;;;6218227;28;20037;-89
2023/07/23 08:21:50;;;;;;;6.50;4.43;;;;;;;;;;6229357;28;20770;-88
2023/07/23 08:24:50;;;;;;;7.43;4.20;;;;;;;;;;6260566;22;20112;-74
2023/07/23 08:27:51;;;;;;;7.23;3.97;;;;;;;;;;6244795;28;20022;-75
2023/07/23 08:30:52;;;;;;;;;;;;;;;;;;6243528;28;20017;-74
2023/07/23 08:33:52;;;;;;;7.68;4.07;;;;;;;;;;6240903;28;19913;-74
2023/07/23 08:36:54;;;;;;;5.20;3.43;;;;;;;;;;6226077;28;20109;-75
2023/07/23 08:39:54;;;;;;;6.38;4.43;;;;;;;;;;6220454;28;20029;-74
2023/07/23 08:42:55;;;;;;;6.10;4.27;;;;;;;;;;6224386;28;20037;-75
2023/07/23 08:46:04;;;;;;;12.15;4.28;;;;;;;;;;6225234;28;20061;-75
2023/07/23 08:49:05;;;;;;;9.68;3.95;;;;;;;;;;6220002;28;20029;-74
2023/07/23 08:52:05;;;;;;;10.57;5.20;;;;;;;;;;6226596;28;20034;-75
2023/07/23 08:55:07;;;;;;;6.27;3.57;;;;;;;;;;6225015;28;20510;-75
2023/07/23 08:58:07;;;;;;;5.05;3.60;;;;;;;;;;6243104;28;20030;-74
2023/07/23 09:01:08;;;;;;;4.88;3.22;;;;;;;;;;6249536;28;20029;-75
2023/07/23 09:04:10;;;;;;;6.60;2.57;;;;;;;;;;6233497;28;20040;-83
2023/07/23 09:07:10;;;;;;;5.15;3.30;;;;;;;;;;6226121;28;20388;-82
2023/07/23 09:10:11;;;;;;;5.37;3.50;;;;;;;;;;6251079;28;20057;-85
2023/07/23 09:13:13;;;;;;;7.28;3.40;;;;;;;;;;6245196;28;20053;-82
2023/07/23 09:16:14;;;;;;;7.18;3.13;;;;;;;;;;6237823;28;20761;-83
2023/07/23 09:19:21;;;;;;;8.53;3.90;;;;;;;;;;6231140;28;20036;-83
2023/07/23 09:22:22;;;;;;;5.75;3.38;;;;;;;;;;6243879;28;20029;-87
2023/07/23 09:25:22;;;;;;;6.82;3.70;;;;;;;;;;6242119;28;20136;-86
2023/07/23 09:28:24;;;;;;;4.18;3.30;;;;;;;;;;6246384;28;20013;-85
2023/07/23 09:31:29;;;;;;;5.15;2.50;;;;;;;;;;6240798;28;20024;-82
2023/07/23 09:34:29;;;;;;;5.53;2.60;;;;;;;;;;6257844;28;20399;-83
2023/07/23 09:37:30;;;;;;;4.55;2.80;;;;;;;;;;6245413;28;20044;-83
2023/07/23 09:40:34;;;;;;;18.52;3.42;;;;;;;;;;6241284;28;20098;-84
2023/07/23 09:43:35;;;;;;;3.67;3.22;;;;;;;;;;6251251;28;20033;-82
2023/07/23 09:46:36;;;;;;;9.03;2.80;;;;;;;;;;6243843;28;20466;-75
2023/07/23 09:49:36;;;;;;;2.03;1.70;;;;;;;;;;6246997;28;20264;-75
2023/07/23 09:52:36;;;;;;;;;;;;;;;;;;6245157;28;20028;-74
2023/07/23 09:55:37;;;;;;;4.07;2.50;;;;;;;;;;6252874;28;19912;-78
2023/07/23 09:58:37;;;;;;;4.10;2.13;;;;;;;;;;6245653;28;20053;-86
2023/07/23 10:01:38;;;;;;;5.13;2.57;;;;;;;;;;6244067;28;20498;-82
2023/07/23 10:04:38;;;;;;;;;;;;;;;;;;6246776;28;20082;-84
2023/07/23 10:07:39;;;;;;;5.67;2.73;;;;;;;;;;6259252;28;19909;-87
2023/07/23 10:10:39;;;;;;;3.50;2.33;;;;;;;;;;6246587;28;20017;-84
2023/07/23 10:13:40;;;;;;;12.97;3.37;;;;;;;;;;6227650;28;20028;-75
2023/07/23 10:16:42;;;;;;;3.83;2.30;;;;;;;;;;6247188;28;20034;-74
2023/07/23 10:19:42;;;;;;;4.50;2.45;;;;;;;;;;6233963;28;20438;-75
2023/07/23 10:22:43;;;;;;;;;;;;;;;;;;6244003;28;20030;-75
2023/07/23 10:25:43;;;;;;;4.30;2.80;;;;;;;;;;6230443;28;19920;-75
2023/07/23 10:28:43;;;;;;;5.50;2.67;;;;;;;;;;6241680;28;20472;-75
2023/07/23 10:31:44;;;;;;;4.55;2.95;;;;;;;;;;6246103;28;20024;-75
2023/07/23 10:34:46;;;;;;;;;;;;;;;;;;6239736;28;20083;-75
2023/07/23 10:38:06;;;;;;;4.82;2.95;;;;;;;;;;6231072;28;19908;-75
2023/07/23 10:41:07;;;;;;;5.38;2.60;;;;;;;;;;6245813;28;20029;-76
2023/07/23 10:44:07;;;;;;;;;;;;;;;;;;6250039;28;20076;-76
2023/07/23 10:47:29;;;;;;;4.70;2.13;;;;;;;;;;6241882;28;19913;-77
2023/07/23 10:50:30;;;;;;;8.60;3.13;;;;;;;;;;6252298;28;20051;-76
2023/07/23 10:53:31;;;;;;;4.95;3.10;;;;;;;;;;6231481;28;20057;-74
2023/07/23 10:56:31;;;;;;;;;;;;;;;;;;6252044;28;20025;-74
2023/07/23 10:59:31;;;;;;;6.13;2.85;;;;;;;;;;6224378;28;19918;-74
2023/07/23 11:02:31;;;;;;;;;;;;;;;;;;6248302;28;20503;-74
2023/07/23 11:05:39;;;;;;;8.20;2.22;;;;;;;;;;6244400;28;19924;-87
2023/07/23 11:08:47;;;;;;;6.75;3.35;;;;;;;;;;6241509;28;20030;-84
2023/07/23 11:11:48;;;;;;;4.65;3.00;;;;;;;;;;6233456;28;20013;-85
2023/07/23 11:14:48;;;;;;;;;;;;;;;;;;6578800;22;20072;-83
2023/07/23 11:17:48;;;;;;;8.07;3.00;;;;;;;;;;6245015;28;19921;-80
2023/07/23 11:20:52;;;;;;;6.22;2.92;;;;;;;;;;6265539;28;20032;-85
2023/07/23 11:23:53;;;;;;;6.28;2.90;;;;;;;;;;6261962;28;20025;-88
2023/07/23 11:26:55;;;;;;;7.05;2.83;;;;;;;;;;6249787;28;20500;-75
2023/07/23 11:29:56;;;;;;;9.32;2.95;;;;;;;;;;6263558;28;20017;-74
2023/07/23 11:32:56;;;;;;;;;;;;;;;;;;6250137;28;20048;-74
2023/07/23 11:35:56;;;;;;;5.00;2.83;;;;;;;;;;6265809;28;19920;-85
2023/07/23 11:38:56;;;;;;;;;;;;;;;;;;6269816;28;20036;-84
2023/07/23 11:41:56;;;;;;;6.35;3.55;;;;;;;;;;6270397;28;19917;-87
2023/07/23 11:44:56;;;;;;;;;;;;;;;;;;6234501;28;20031;-85
2023/07/23 11:47:57;;;;;;;4.55;2.70;;;;;;;;;;6270804;28;19912;-85
2023/07/23 11:50:59;;;;;;;;;;;;;;;;;;6276373;28;20017;-84
2023/07/23 11:54:00;;;;;;;3.28;2.13;;;;;;;;;;6277083;28;19912;-86
2023/07/23 11:57:02;;;;;;;3.78;1.73;;;;;;;;;;6276931;28;20028;-80
2023/07/23 12:00:02;;;;;;;6.90;3.55;;;;;;;;;;6270598;28;20079;-84
2023/07/23 12:03:02;;;;;;;;;;;;;;;;;;6267373;28;20426;-84
2023/07/23 12:06:03;;;;;;;10.20;4.30;;;;;;;;;;6268318;28;19909;-88
2023/07/23 12:09:03;;;;;;;;;;;;;;;;;;6247564;28;20455;-83
2023/07/23 12:12:03;;;;;;;5.13;3.28;;;;;;;;;;6268863;28;20016;-87
2023/07/23 12:15:04;;;;;;;;;;;;;;;;;;6261588;28;20091;-86
2023/07/23 12:18:07;;;;;;;7.28;3.15;;;;;;;;;;6250383;28;19909;-89
2023/07/23 12:21:08;;;;;;;4.95;3.10;;;;;;;;;;6247523;28;20026;-89
2023/07/23 12:24:08;;;;;;;;;;;;;;;;;;6246815;28;20398;-86
2023/07/23 12:27:08;;;;;;;9.23;3.13;;;;;;;;;;6243421;28;19906;-86
2023/07/23 12:30:08;;;;;;;;;;;;;;;;;;6249658;28;20086;-87
2023/07/23 12:33:08;;;;;;;6.72;2.70;;;;;;;;;;6251606;28;19952;-88
2023/07/23 12:36:08;;;;;;;;;;;;;;;;;;6249750;28;20017;-85
2023/07/23 12:39:09;;;;;;;5.40;2.70;;;;;;;;;;6241567;28;19914;-89
2023/07/23 12:42:09;;;;;;;;;;;;;;;;;;6245850;28;20075;-86
2023/07/23 12:45:09;;;;;;;6.00;2.55;;;;;;;;;;6245405;28;19912;-85
2023/07/23 12:48:10;;;;;;;;;;;;;;;;;;6231720;28;20167;-77
2023/07/23 12:51:10;;;;;;;;;;;;;;;;;;6255294;28;20623;-88
2023/07/23 12:54:11;;;;;;;;;;;;;;;;;;6254243;28;19968;-76
2023/07/23 12:57:12;;;;;;;;;;;;;;;;;;6243293;28;19909;-75
2023/07/23 13:00:13;;;;;;;;;;;;;;;;;;6239905;28;19913;-78
2023/07/23 13:03:13;;;;;;;;;;;;;;;;;;6226984;28;20031;-76
2023/07/23 13:06:14;;;;;;;;;;;;;;;;;;6229697;28;19909;-78
2023/07/23 13:09:15;;;;;;;;;;;;;;;;;;6243764;28;19913;-75
2023/07/23 13:12:15;;;;;;;;;;;;;;;;;;6245012;28;19905;-74
2023/07/23 13:15:15;;;;;;;;;;;;;;;;;;6245013;28;19913;-74
2023/07/23 13:18:15;;;;;;;;;;;;;;;;;;6241316;28;19905;-74
2023/07/23 13:21:15;;;;;;;;;;;;;;;;;;6238608;28;19924;-75
2023/07/23 13:24:15;;;;;;;;;;;;;;;;;;6239369;28;20023;-76
2023/07/23 13:27:15;;;;;;;;;;;;;;;;;;6240884;28;19927;-76
2023/07/23 13:30:15;;;;;;;;;;;;;;;;;;6246758;28;19912;-75
2023/07/23 13:33:16;;;;;;;;;;;;;;;;;;6229620;28;19912;-75
2023/07/23 13:36:16;;;;;;;;;;;;;;;;;;6243184;28;19931;-84
2023/07/23 13:39:16;;;;;;;;;;;;;;;;;;6243140;28;19924;-84
2023/07/23 13:42:16;;;;;;;;;;;;;;;;;;6242898;28;19917;-86
2023/07/23 13:45:16;;;;;;;;;;;;;;;;;;6249062;28;19952;-85
2023/07/23 13:48:16;;;;;;;;;;;;;;;;;;6249049;28;19918;-82
2023/07/23 13:51:20;;;;;;;;;;;;;;;;;;6249266;28;19916;-85
2023/07/23 13:54:20;;;;;;;;;;;;;;;;;;6248422;28;19913;-87
2023/07/23 13:57:21;;;;;;;;;;;;;;;;;;6223902;28;19964;-86
2023/07/23 14:00:21;;;;;;;;;;;;;;;;;;6246803;28;19913;-86
2023/07/23 14:03:21;;;;;;;;;;;;;;;;;;6238215;28;19916;-86
2023/07/23 14:06:22;;;;;;;;;;;;;;;;;;6240966;28;19952;-75
2023/07/23 14:09:22;;;;;;;;;;;;;;;;;;6245243;28;19913;-75
2023/07/23 14:12:22;;;;;;;;;;;;;;;;;;6241089;28;19931;-75
2023/07/23 14:15:22;;;;;;;;;;;;;;;;;;6241812;28;19999;-75
2023/07/23 14:18:22;;;;;;;;;;;;;;;;;;6243341;28;19916;-75
2023/07/23 14:21:22;;;;;;;;;;;;;;;;;;6244125;28;19913;-75
2023/07/23 14:24:22;;;;;;;;;;;;;;;;;;6240479;28;19939;-75
2023/07/23 14:27:22;;;;;;;;;;;;;;;;;;6228238;28;19916;-75
2023/07/23 14:30:23;;;;;;;;;;;;;;;;;;6239424;28;19909;-75
2023/07/23 14:33:23;;;;;;;;;;;;;;;;;;6242258;28;20346;-75
2023/07/23 14:36:23;;;;;;;;;;;;;;;;;;6247680;28;19915;-75
2023/07/23 14:39:23;;;;;;;;;;;;;;;;;;6240868;28;19913;-75
2023/07/23 14:42:23;;;;;;;;;;;;;;;;;;6241812;28;20014;-74
2023/07/23 14:45:23;;;;;;;;;;;;;;;;;;6230360;28;19913;-87
2023/07/23 14:48:23;;;;;;;;;;;;;;;;;;6244475;28;20351;-85
2023/07/23 14:51:23;;;;;;;;;;;;;;;;;;6236853;28;19932;-87
2023/07/23 14:54:23;;;;;;;;;;;;;;;;;;6247077;28;19921;-85
2023/07/23 14:57:24;;;;;;;;;;;;;;;;;;6237395;28;19909;-88
2023/07/23 15:00:24;;;;;;;;;;;;;;;;;;6239122;28;19968;-89
2023/07/23 15:03:25;;;;;;;;;;;;;;;;;;6247169;28;19920;-87
2023/07/23 15:06:25;;;;;;;;;;;;;;;;;;6238036;28;20023;-87
2023/07/23 15:09:26;;;;;;;;;;;;;;;;;;6241168;28;19916;-86
2023/07/23 15:12:26;;;;;;;;;;;;;;;;;;6243222;28;19909;-87
2023/07/23 15:15:26;;;;;;;;;;;;;;;;;;6249613;28;19917;-86
2023/07/23 15:18:26;;;;;;;;;;;;;;;;;;6231797;28;20354;-88
2023/07/23 15:21:26;;;;;;;;;;;;;;;;;;6252320;28;20000;-85
2023/07/23 15:24:26;;;;;;;;;;;;;;;;;;6255230;28;19916;-85
2023/07/23 15:27:26;;;;;;;;;;;;;;;;;;6242879;28;19947;-85
2023/07/23 15:30:26;;;;;;;;;;;;;;;;;;6230798;28;19983;-87
2023/07/23 15:33:27;;;;;;;;;;;;;;;;;;6232513;28;20436;-87
2023/07/23 15:36:27;;;;;;;;;;;;;;;;;;6236921;28;19952;-85
2023/07/23 15:39:27;;;;;;;;;;;;;;;;;;6246987;28;19936;-85
2023/07/23 15:42:27;;;;;;;;;;;;;;;;;;6232245;28;20287;-86
2023/07/23 15:45:27;;;;;;;;;;;;;;;;;;6243188;28;20445;-85
2023/07/23 15:48:27;;;;;;;;;;;;;;;;;;6240013;28;19913;-85
2023/07/23 15:51:27;;;;;;;;;;;;;;;;;;6239666;28;19983;-84
2023/07/23 15:54:27;;;;;;;;;;;;;;;;;;6249379;28;19909;-84
2023/07/23 15:57:27;;;;;;;;;;;;;;;;;;6250540;28;19908;-85
2023/07/23 16:00:27;;;;;;;;;;;;;;;;;;6247758;28;19909;-83
2023/07/23 16:03:28;;;;;;;;;;;;;;;;;;6247571;28;19908;-77
2023/07/23 16:06:28;;;;;;;;;;;;;;;;;;6230802;28;19920;-85
2023/07/23 16:09:28;;;;;;;;;;;;;;;;;;6248978;28;19909;-83
2023/07/23 16:12:28;;;;;;;;;;;;;;;;;;6248759;28;20402;-82
2023/07/23 16:15:28;;;;;;;;;;;;;;;;;;6263746;28;19944;-82
2023/07/23 16:18:28;;;;;;;;;;;;;;;;;;6262237;28;19969;-78
2023/07/23 16:21:28;;;;;;;;;;;;;;;;;;6260953;28;19905;-86
2023/07/23 16:24:28;;;;;;;;;;;;;;;;;;6248106;28;19958;-86
2023/07/23 16:27:28;;;;;;;;;;;;;;;;;;6241149;28;19914;-86
2023/07/23 16:30:28;;;;;;;;;;;;;;;;;;6238148;28;20479;-87
2023/07/23 16:33:29;;;;;;;;;;;;;;;;;;6244878;28;19948;-84
2023/07/23 16:36:29;;;;;;;;;;;;;;;;;;6258999;28;19909;-83
2023/07/23 16:39:29;;;;;;;;;;;;;;;;;;6257187;28;19909;-84
2023/07/23 16:42:29;;;;;;;;;;;;;;;;;;6255285;28;19909;-86
2023/07/23 16:45:29;;;;;;;;;;;;;;;;;;6239026;28;19913;-87
2023/07/23 16:48:29;;;;;;;;;;;;;;;;;;6234815;28;19927;-87
2023/07/23 16:51:30;;;;;;;;;;;;;;;;;;6243596;28;19905;-86
2023/07/23 16:54:30;;;;;;;;;;;;;;;;;;6244040;28;19988;-85
2023/07/23 16:57:30;;;;;;;;;;;;;;;;;;6218859;28;19912;-87
2023/07/23 17:00:30;;;;;;;;;;;;;;;;;;6242438;28;20347;-86
2023/07/23 17:03:30;;;;;;;;;;;;;;;;;;6245956;28;19905;-86
2023/07/23 17:06:30;;;;;;;;;;;;;;;;;;6238143;28;19937;-86
2023/07/23 17:09:30;;;;;;;;;;;;;;;;;;6250569;28;19909;-83
2023/07/23 17:12:32;;;;;;;;;;;;;;;;;;6239483;28;19941;-85
2023/07/23 17:15:32;;;;;;;;;;;;;;;;;;6244066;28;19917;-86
2023/07/23 17:18:32;;;;;;;;;;;;;;;;;;6229643;28;20326;-89
2023/07/23 17:21:32;;;;;;;;;;;;;;;;;;6228498;28;19954;-87
2023/07/23 17:24:32;;;;;;;;;;;;;;;;;;6235300;28;19947;-85
2023/07/23 17:27:33;;;;;;;;;;;;;;;;;;6248156;28;20509;-87
2023/07/23 17:30:33;;;;;;;;;;;;;;;;;;6239633;28;19909;-86
2023/07/23 17:33:33;;;;;;;;;;;;;;;;;;6246242;28;20004;-86
2023/07/23 17:36:33;;;;;;;;;;;;;;;;;;6248346;28;19912;-88
2023/07/23 17:39:33;;;;;;;;;;;;;;;;;;6244541;28;20253;-83
2023/07/23 17:42:33;;;;;;;;;;;;;;;;;;6247758;28;19909;-86
2023/07/23 17:45:33;;;;;;;;;;;;;;;;;;6250232;28;19979;-85
2023/07/23 17:48:33;;;;;;;;;;;;;;;;;;6240878;28;19952;-86
2023/07/23 17:51:34;;;;;;;;;;;;;;;;;;6222764;28;20378;-85
2023/07/23 17:54:34;;;;;;;;;;;;;;;;;;6244064;28;19905;-85
2023/07/23 17:57:34;;;;;;;;;;;;;;;;;;6225722;28;19909;-86
2023/07/23 18:00:34;;;;;;;;;;;;;;;;;;6237997;28;19955;-87
2023/07/23 18:03:37;;;;;;;;;;;;;;;;;;6236401;28;20363;-86
2023/07/23 18:06:37;;;;;;;;;;;;;;;;;;6240784;28;19916;-85
2023/07/23 18:09:37;;;;;;;;;;;;;;;;;;6225945;28;19913;-89
2023/07/23 18:12:37;;;;;;;;;;;;;;;;;;6241604;28;20295;-86
2023/07/23 18:15:37;;;;;;;;;;;;;;;;;;6244328;28;19964;-88
2023/07/23 18:18:37;;;;;;;;;;;;;;;;;;6247338;28;19912;-87
2023/07/23 18:21:37;;;;;;;;;;;;;;;;;;6247396;28;19913;-84
2023/07/23 18:24:39;;;;;;;;;;;;;;;;;;6246120;28;19924;-84
2023/07/23 18:27:39;;;;;;;;;;;;;;;;;;6246614;28;20011;-85
2023/07/23 18:30:39;;;;;;;;;;;;;;;;;;6239987;28;20327;-85
2023/07/23 18:33:39;;;;;;;;;;;;;;;;;;6240122;28;21373;-87
2023/07/23 18:36:39;;;;;;;;;;;;;;;;;;6246313;28;20458;-85
2023/07/23 18:39:39;;;;;;;;;;;;;;;;;;6247451;28;19909;-87
2023/07/23 18:42:40;;;;;;;;;;;;;;;;;;6244892;28;19913;-87